Terminal Aerodrome Forecast
Issued by NWS

Home | Current Version | Previous Version | Text Only | Print | Product List | Glossary On
Versions: 1 2 3 4 5 6 7 8 9 10 11 12
000
FTUS44 KLIX 220521
TAFGPT
TAF
KGPT 220521Z 2206/2306 13011KT P6SM SCT025 BKN110
     FM221300 13010KT P6SM VCSH SCT020 BKN050
     FM222000 13010KT 6SM SHRA SCT025 OVC050
      TEMPO 2220/2224 2SM TSRA BKN025CB
     FM230000 14009KT 5SM SHRA VCTS SCT020CB OVC030
     FM230300 14007KT 4SM SHRA VCTS BKN035CB BKN070 PROB30 2304/2305
      -SHRA OVC025
     FM230500 20008KT P6SM BKN040 BKN080 PROB30 2305/2306 2SM -SHRA
      OVC040=

USA.gov is the U.S. government's official web portal to all federal, state and local government web resources and services.